createdAt,value
2023-03-11T00:01:50.726Z,5.97
2023-03-11T00:04:19.192Z,5.77
2023-03-11T00:06:47.420Z,5.47
2023-03-11T00:09:17.179Z,5.20
2023-03-11T00:11:45.987Z,4.80
2023-03-11T00:14:15.797Z,5.10
2023-03-11T00:16:43.989Z,5.53
2023-03-11T00:19:12.599Z,5.47
2023-03-11T00:21:40.868Z,5.30
2023-03-11T00:24:09.268Z,4.97
2023-03-11T00:26:37.567Z,5.87
2023-03-11T00:29:05.903Z,4.97
2023-03-11T00:31:35.550Z,5.30
2023-03-11T00:34:03.823Z,4.83
2023-03-11T00:36:34.424Z,6.07
2023-03-11T00:39:06.920Z,5.30
2023-03-11T00:41:35.468Z,5.87
2023-03-11T00:44:03.764Z,5.67
2023-03-11T00:46:32.456Z,6.13
2023-03-11T00:49:02.132Z,5.40
2023-03-11T00:51:32.528Z,5.50
2023-03-11T00:54:02.064Z,5.17
2023-03-11T00:56:31.167Z,5.47
2023-03-11T00:58:59.286Z,5.37
2023-03-11T01:01:28.019Z,4.67
2023-03-11T01:03:56.352Z,5.07
2023-03-11T01:06:30.144Z,4.80
2023-03-11T01:09:05.713Z,5.60
2023-03-11T01:11:34.144Z,6.40
2023-03-11T01:14:02.397Z,6.10
2023-03-11T01:16:30.661Z,6.97
2023-03-11T01:18:58.894Z,6.23
2023-03-11T01:21:28.596Z,5.83
2023-03-11T01:23:57.330Z,5.90
2023-03-11T01:26:25.686Z,5.70
2023-03-11T01:28:53.898Z,5.23
2023-03-11T01:31:22.265Z,9.17
2023-03-11T01:33:50.471Z,5.80
2023-03-11T01:36:19.124Z,6.10
2023-03-11T01:38:48.923Z,5.50
2023-03-11T01:41:17.584Z,5.93
2023-03-11T01:43:55.863Z,6.03
2023-03-11T01:46:26.891Z,6.00
2023-03-11T01:48:56.658Z,5.87
2023-03-11T01:51:30.084Z,5.53
2023-03-11T01:54:04.072Z,5.77
2023-03-11T01:56:33.042Z,5.50
2023-03-11T01:59:01.944Z,5.70
2023-03-11T02:01:31.349Z,5.70
2023-03-11T02:03:59.745Z,5.47
2023-03-11T02:06:28.106Z,6.07
2023-03-11T02:08:57.163Z,5.67
2023-03-11T02:11:31.035Z,5.47
2023-03-11T02:14:02.993Z,5.67
2023-03-11T02:16:31.313Z,4.80
2023-03-11T02:19:03.876Z,6.07
2023-03-11T02:21:34.203Z,5.30
2023-03-11T02:24:12.125Z,5.07
2023-03-11T02:27:00.367Z,5.10
2023-03-11T02:29:29.984Z,5.33
2023-03-11T02:32:03.019Z,4.60
2023-03-11T02:34:35.740Z,5.67
2023-03-11T02:37:06.862Z,5.20
2023-03-11T02:39:38.019Z,5.37
2023-03-11T02:42:12.861Z,7.03
2023-03-11T02:44:45.775Z,6.33
2023-03-11T02:47:14.407Z,7.40
2023-03-11T02:49:42.718Z,5.90
2023-03-11T02:52:10.924Z,5.83
2023-03-11T02:54:39.147Z,5.43
2023-03-11T02:57:08.835Z,5.87
2023-03-11T02:59:37.072Z,5.77
2023-03-11T03:02:05.380Z,5.40
2023-03-11T03:04:33.570Z,5.27
2023-03-11T03:07:01.784Z,4.90
2023-03-11T03:09:30.879Z,5.00
2023-03-11T03:11:59.123Z,5.03
2023-03-11T03:14:29.567Z,8.63
2023-03-11T03:16:57.757Z,4.47
2023-03-11T03:19:26.077Z,6.00
2023-03-11T03:21:54.469Z,5.40
2023-03-11T03:24:22.620Z,4.73
2023-03-11T03:26:52.204Z,5.20
2023-03-11T03:29:20.384Z,7.10
2023-03-11T03:31:50.545Z,5.43
2023-03-11T03:34:18.776Z,5.33
2023-03-11T03:36:47.340Z,5.20
2023-03-11T03:39:16.116Z,5.63
2023-03-11T03:41:44.641Z,4.80
2023-03-11T03:44:12.860Z,4.47
2023-03-11T03:46:41.046Z,5.13
2023-03-11T03:49:10.846Z,5.00
2023-03-11T03:54:21.085Z,5.30
2023-03-11T03:56:49.424Z,6.10
2023-03-11T03:59:17.603Z,5.67
2023-03-11T04:01:46.272Z,6.47
2023-03-11T04:04:16.077Z,5.70
2023-03-11T04:06:44.341Z,6.20
2023-03-11T04:09:14.787Z,6.30
2023-03-11T04:11:43.404Z,6.23
2023-03-11T04:14:11.570Z,5.80
2023-03-11T04:16:39.708Z,5.67
2023-03-11T04:19:07.795Z,5.43
2023-03-11T04:21:37.440Z,5.20
2023-03-11T04:24:06.548Z,4.43
2023-03-11T04:26:34.734Z,4.93
2023-03-11T04:29:03.015Z,4.97
2023-03-11T04:31:32.002Z,5.00
2023-03-11T04:34:00.227Z,5.00
2023-03-11T04:36:28.449Z,3.87
2023-03-11T04:39:03.894Z,4.00
2023-03-11T04:41:32.117Z,3.97
2023-03-11T04:44:01.472Z,4.33
2023-03-11T04:46:29.793Z,4.53
2023-03-11T04:48:58.280Z,4.00
2023-03-11T04:51:27.226Z,4.60
2023-03-11T04:53:56.215Z,4.60
2023-03-11T04:56:26.081Z,4.37
2023-03-11T04:58:54.517Z,5.00
2023-03-11T05:01:23.203Z,5.53
2023-03-11T05:03:51.447Z,5.03
2023-03-11T05:06:19.766Z,5.17
2023-03-11T05:08:47.990Z,5.33
2023-03-11T05:11:17.432Z,4.53
2023-03-11T05:13:47.144Z,4.60
2023-03-11T05:16:15.408Z,4.70
2023-03-11T05:18:44.103Z,4.73
2023-03-11T05:21:12.590Z,4.63
2023-03-11T05:23:40.779Z,4.53
2023-03-11T05:26:09.136Z,4.57
2023-03-11T05:28:37.611Z,4.07
2023-03-11T05:31:11.358Z,4.40
2023-03-11T05:33:39.706Z,4.20
2023-03-11T05:36:09.965Z,4.53
2023-03-11T05:38:38.687Z,4.33
2023-03-11T05:41:07.474Z,4.10
2023-03-11T05:43:39.370Z,4.40
2023-03-11T05:46:07.767Z,4.30
2023-03-11T05:48:37.552Z,4.50
2023-03-11T05:51:09.190Z,4.50
2023-03-11T05:53:38.013Z,4.60
2023-03-11T05:56:27.154Z,4.60
2023-03-11T05:58:55.360Z,4.90
2023-03-11T06:01:23.569Z,5.37
2023-03-11T06:03:53.603Z,4.80
2023-03-11T06:06:22.312Z,5.10
2023-03-11T06:08:50.957Z,4.43
2023-03-11T06:11:20.702Z,4.30
2023-03-11T06:13:48.881Z,4.00
2023-03-11T06:16:17.738Z,4.17
2023-03-11T06:18:45.978Z,3.90
2023-03-11T06:21:20.736Z,3.80
2023-03-11T06:23:50.081Z,3.60
2023-03-11T06:26:20.966Z,4.03
2023-03-11T06:28:50.818Z,4.30
2023-03-11T06:31:21.193Z,4.30
2023-03-11T06:33:50.685Z,3.70
2023-03-11T06:36:22.538Z,3.80
2023-03-11T06:38:53.648Z,3.93
2023-03-11T06:41:22.076Z,3.97
2023-03-11T06:43:50.556Z,4.00
2023-03-11T06:46:20.845Z,4.10
2023-03-11T06:48:52.072Z,4.10
2023-03-11T06:51:22.225Z,4.27
2023-03-11T06:53:51.946Z,4.33
2023-03-11T06:56:21.411Z,4.07
2023-03-11T06:58:50.048Z,3.87
2023-03-11T07:01:20.054Z,4.20
2023-03-11T07:03:49.307Z,4.57
2023-03-11T07:06:19.323Z,4.30
2023-03-11T07:08:51.379Z,4.10
2023-03-11T07:11:23.436Z,4.57
2023-03-11T07:13:59.416Z,3.70
2023-03-11T07:16:29.999Z,3.80
2023-03-11T07:19:01.069Z,4.07
2023-03-11T07:21:30.284Z,3.90
2023-03-11T07:24:05.305Z,3.90
2023-03-11T07:26:35.469Z,4.07
2023-03-11T07:29:19.783Z,4.77
2023-03-11T07:31:49.239Z,4.13
2023-03-11T07:34:17.687Z,4.17
2023-03-11T07:36:46.000Z,3.60
2023-03-11T07:39:17.878Z,3.70
2023-03-11T07:41:47.381Z,4.07
2023-03-11T07:44:18.204Z,4.13
2023-03-11T07:46:47.159Z,4.43
2023-03-11T07:49:15.363Z,4.70
2023-03-11T07:51:44.156Z,3.67
2023-03-11T07:54:13.864Z,4.57
2023-03-11T07:56:43.681Z,3.90
2023-03-11T07:59:11.902Z,4.30
2023-03-11T08:01:41.420Z,4.37
2023-03-11T08:04:14.379Z,3.73
2023-03-11T08:06:44.126Z,4.63
2023-03-11T08:09:14.256Z,4.00
2023-03-11T08:11:44.422Z,4.50
2023-03-11T08:14:12.673Z,3.63
2023-03-11T08:16:41.605Z,4.20
2023-03-11T08:19:13.054Z,4.13
2023-03-11T08:21:42.090Z,3.87
2023-03-11T08:24:13.505Z,4.00
2023-03-11T08:26:43.943Z,3.90
2023-03-11T08:29:12.113Z,3.87
2023-03-11T08:31:40.913Z,3.73
2023-03-11T08:34:11.886Z,3.70
2023-03-11T08:36:40.543Z,3.90
2023-03-11T08:39:09.704Z,3.90
2023-03-11T08:41:38.419Z,4.03
2023-03-11T08:44:08.070Z,3.83
2023-03-11T08:46:45.718Z,4.50
2023-03-11T08:49:14.031Z,3.77
2023-03-11T08:51:42.861Z,3.77
2023-03-11T08:54:11.169Z,4.07
2023-03-11T08:56:39.612Z,4.33
2023-03-11T08:59:09.385Z,3.87
2023-03-11T09:01:43.953Z,4.27
2023-03-11T09:04:12.217Z,4.03
2023-03-11T09:06:44.271Z,3.60
2023-03-11T09:09:13.274Z,4.43
2023-03-11T09:11:43.287Z,4.17
2023-03-11T09:14:16.179Z,4.37
2023-03-11T09:16:44.711Z,4.03
2023-03-11T09:19:13.038Z,4.20
2023-03-11T09:21:41.729Z,3.70
2023-03-11T09:24:10.218Z,3.90
2023-03-11T09:26:39.520Z,5.17
2023-03-11T09:29:07.754Z,4.07
2023-03-11T09:31:38.727Z,4.23
2023-03-11T09:34:07.428Z,3.57
2023-03-11T09:36:36.877Z,4.10
2023-03-11T09:39:05.357Z,3.83
2023-03-11T09:41:57.218Z,3.70
2023-03-11T09:44:35.955Z,3.93
2023-03-11T09:47:37.070Z,3.90
2023-03-11T09:50:18.546Z,4.00
2023-03-11T09:52:54.352Z,4.13
2023-03-11T09:55:37.580Z,3.70
2023-03-11T09:58:14.206Z,4.30
2023-03-11T10:00:42.667Z,3.87
2023-03-11T10:03:40.729Z,4.13
2023-03-11T10:06:23.219Z,3.70
2023-03-11T10:09:01.269Z,3.90
2023-03-11T10:11:51.010Z,4.20
2023-03-11T10:14:35.748Z,3.90
2023-03-11T10:17:15.341Z,3.73
2023-03-11T10:19:49.689Z,4.10
2023-03-11T10:22:25.543Z,4.23
2023-03-11T10:25:05.098Z,3.87
2023-03-11T10:27:41.592Z,3.60
2023-03-11T10:30:21.099Z,3.73
2023-03-11T10:32:54.156Z,3.63
2023-03-11T10:35:25.589Z,3.57
2023-03-11T10:37:59.705Z,3.60
2023-03-11T10:40:31.627Z,3.97
2023-03-11T10:43:04.039Z,3.90
2023-03-11T10:45:38.389Z,3.73
2023-03-11T10:48:11.247Z,4.07
2023-03-11T10:50:46.632Z,4.10
2023-03-11T10:53:19.222Z,4.50
2023-03-11T10:55:49.389Z,4.60
2023-03-11T10:58:19.999Z,4.43
2023-03-11T11:01:01.320Z,5.33
2023-03-11T11:03:30.614Z,4.90
2023-03-11T11:06:02.111Z,5.33
2023-03-11T11:08:33.546Z,4.23
2023-03-11T11:11:05.680Z,4.90
2023-03-11T11:13:35.586Z,5.30
2023-03-11T11:16:05.680Z,5.37
2023-03-11T11:18:36.806Z,6.40
2023-03-11T11:21:08.319Z,6.03
2023-03-11T11:23:42.235Z,6.10
2023-03-11T11:26:19.108Z,7.17
2023-03-11T11:28:47.599Z,5.57
2023-03-11T11:31:25.310Z,5.67
2023-03-11T11:33:55.924Z,6.10
2023-03-11T11:36:45.046Z,4.20
2023-03-11T11:39:20.311Z,3.83
2023-03-11T11:41:51.044Z,3.63
2023-03-11T11:44:22.573Z,3.27
2023-03-11T11:46:55.911Z,3.23
2023-03-11T11:49:27.221Z,3.03
2023-03-11T11:52:01.307Z,2.90
2023-03-11T11:54:36.229Z,2.70
2023-03-11T11:57:13.862Z,2.03
2023-03-11T11:59:42.753Z,2.60
2023-03-11T12:02:28.707Z,2.10
2023-03-11T12:05:08.529Z,2.13
2023-03-11T12:07:56.165Z,2.33
2023-03-11T12:10:33.993Z,2.33
2023-03-11T12:13:29.287Z,2.17
2023-03-11T12:16:03.420Z,2.20
2023-03-11T12:18:37.473Z,2.00
2023-03-11T12:21:24.024Z,1.80
2023-03-11T12:24:03.082Z,2.30
2023-03-11T12:26:36.800Z,1.57
2023-03-11T12:29:09.757Z,1.83
2023-03-11T12:31:41.747Z,1.70
2023-03-11T12:34:15.197Z,1.70
2023-03-11T12:36:45.686Z,1.20
2023-03-11T12:39:24.114Z,1.23
2023-03-11T12:42:17.421Z,1.73
2023-03-11T12:44:47.422Z,1.40
2023-03-11T12:47:35.693Z,1.20
2023-03-11T12:50:40.586Z,2.90
2023-03-11T12:53:18.317Z,1.23
2023-03-11T12:56:05.084Z,1.53
2023-03-11T12:58:55.310Z,1.37
2023-03-11T13:01:36.444Z,1.17
2023-03-11T13:04:23.063Z,1.30
2023-03-11T13:07:30.229Z,1.40
2023-03-11T13:10:14.135Z,1.30
2023-03-11T13:12:45.256Z,1.40
2023-03-11T13:15:37.002Z,1.47
2023-03-11T13:18:19.294Z,1.20
2023-03-11T13:20:51.115Z,1.20
2023-03-11T13:23:25.092Z,1.27
2023-03-11T13:26:37.049Z,1.40
2023-03-11T13:29:40.935Z,1.50
2023-03-11T13:32:27.118Z,1.50
2023-03-11T13:35:11.567Z,1.40
2023-03-11T13:37:51.107Z,1.50
2023-03-11T13:40:30.674Z,1.60
2023-03-11T13:43:04.124Z,2.00
2023-03-11T13:45:35.840Z,1.70
2023-03-11T13:48:15.226Z,1.80
2023-03-11T13:50:48.106Z,1.57
2023-03-11T13:53:22.212Z,1.60
2023-03-11T13:55:51.734Z,1.60
2023-03-11T13:58:23.896Z,1.80
2023-03-11T14:00:54.841Z,1.80
2023-03-11T14:03:26.075Z,1.87
2023-03-11T14:05:59.377Z,1.60
2023-03-11T14:08:31.958Z,1.17
2023-03-11T14:11:01.493Z,1.13
2023-03-11T14:13:31.218Z,1.20
2023-03-11T14:16:05.818Z,1.50
2023-03-11T14:18:40.893Z,1.57
2023-03-11T14:21:15.825Z,1.30
2023-03-11T14:23:46.451Z,1.70
2023-03-11T14:26:17.491Z,1.73
2023-03-11T14:28:51.132Z,2.10
2023-03-11T14:31:32.179Z,1.87
2023-03-11T14:34:06.825Z,1.60
2023-03-11T14:36:43.939Z,2.03
2023-03-11T14:39:30.148Z,1.67
2023-03-11T14:42:03.235Z,1.90
2023-03-11T14:44:52.321Z,2.57
2023-03-11T14:47:28.600Z,2.03
2023-03-11T14:49:58.916Z,2.47
2023-03-11T14:52:37.361Z,2.40
2023-03-11T14:55:13.708Z,3.10
2023-03-11T14:57:46.789Z,2.50
2023-03-11T15:00:23.472Z,2.67
2023-03-11T15:03:01.169Z,2.00
2023-03-11T15:05:37.991Z,1.97
2023-03-11T15:08:08.725Z,2.23
2023-03-11T15:10:38.096Z,1.70
2023-03-11T15:13:14.919Z,1.90
2023-03-11T15:15:43.475Z,2.03
2023-03-11T15:18:23.953Z,1.70
2023-03-11T15:21:08.733Z,1.83
2023-03-11T15:23:39.882Z,1.80
2023-03-11T15:26:08.106Z,1.73
2023-03-11T15:28:40.318Z,2.00
2023-03-11T15:31:38.842Z,1.87
2023-03-11T15:34:25.291Z,1.67
2023-03-11T15:37:23.540Z,1.77
2023-03-11T15:39:53.302Z,1.73
2023-03-11T15:42:24.621Z,1.80
2023-03-11T15:45:05.671Z,1.50
2023-03-11T15:47:36.162Z,1.73
2023-03-11T15:50:23.560Z,1.60
2023-03-11T15:52:55.692Z,1.83
2023-03-11T15:55:24.859Z,1.63
2023-03-11T15:57:59.336Z,1.60
2023-03-11T16:00:27.651Z,1.57
2023-03-11T16:02:56.486Z,1.60
2023-03-11T16:05:26.152Z,1.33
2023-03-11T16:07:56.370Z,1.50
2023-03-11T16:10:28.858Z,1.43
2023-03-11T16:12:57.379Z,1.30
2023-03-11T16:15:29.331Z,1.70
2023-03-11T16:18:10.996Z,1.50
2023-03-11T16:20:42.457Z,1.20
2023-03-11T16:23:18.840Z,1.50
2023-03-11T16:25:48.973Z,1.53
2023-03-11T16:28:18.211Z,1.60
2023-03-11T16:30:46.771Z,1.23
2023-03-11T16:33:15.098Z,1.73
2023-03-11T16:35:43.865Z,1.60
2023-03-11T16:38:13.758Z,1.90
2023-03-11T16:40:42.171Z,1.43
2023-03-11T16:43:12.919Z,1.47
2023-03-11T16:45:41.301Z,1.40
2023-03-11T16:48:09.574Z,1.50
2023-03-11T16:50:37.968Z,1.33
2023-03-11T16:53:06.398Z,1.70
2023-03-11T16:55:36.504Z,1.47
2023-03-11T16:58:05.042Z,1.70
2023-03-11T17:00:33.486Z,1.50
2023-03-11T17:03:02.291Z,1.70
2023-03-11T17:05:32.030Z,1.20
2023-03-11T17:08:04.352Z,1.40
2023-03-11T17:10:39.759Z,1.50
2023-03-11T17:13:08.590Z,1.30
2023-03-11T17:15:38.255Z,1.30
2023-03-11T17:18:06.681Z,1.30
2023-03-11T17:20:35.156Z,1.37
2023-03-11T17:23:03.650Z,1.33
2023-03-11T17:25:31.873Z,1.40
2023-03-11T17:28:02.252Z,1.43
2023-03-11T17:30:36.796Z,1.30
2023-03-11T17:33:06.146Z,1.40
2023-03-11T17:35:34.901Z,1.33
2023-03-11T17:38:03.974Z,1.10
2023-03-11T17:40:32.859Z,1.00
2023-03-11T17:43:02.529Z,1.50
2023-03-11T17:45:32.070Z,1.13
2023-03-11T17:48:00.722Z,1.40
2023-03-11T17:50:28.914Z,1.13
2023-03-11T17:52:58.035Z,1.53
2023-03-11T17:55:26.367Z,1.30
2023-03-11T17:57:54.639Z,1.37
2023-03-11T18:00:24.636Z,1.40
2023-03-11T18:02:53.085Z,1.40
2023-03-11T18:05:22.037Z,1.40
2023-03-11T18:07:59.681Z,1.90
2023-03-11T18:10:29.473Z,1.70
2023-03-11T18:12:57.994Z,1.27
2023-03-11T18:15:27.807Z,1.30
2023-03-11T18:17:57.910Z,1.50
2023-03-11T18:20:26.073Z,1.20
2023-03-11T18:22:56.085Z,1.27
2023-03-11T18:25:24.199Z,1.33
2023-03-11T18:27:52.957Z,1.17
2023-03-11T18:30:24.381Z,1.20
2023-03-11T18:32:57.022Z,1.30
2023-03-11T18:35:25.214Z,1.50
2023-03-11T18:37:53.419Z,1.20
2023-03-11T18:40:21.595Z,1.30
2023-03-11T18:42:50.034Z,1.30
2023-03-11T18:45:18.365Z,1.40
2023-03-11T18:47:47.267Z,1.50
2023-03-11T18:50:16.958Z,1.80
2023-03-11T18:52:52.329Z,1.40
2023-03-11T18:55:21.054Z,1.20
2023-03-11T18:57:49.281Z,1.30
2023-03-11T19:00:22.419Z,1.20
2023-03-11T19:02:54.465Z,1.50
2023-03-11T19:05:24.121Z,1.37
2023-03-11T19:08:13.598Z,1.50
2023-03-11T19:10:53.256Z,1.60
2023-03-11T19:13:21.723Z,1.50
2023-03-11T19:15:50.114Z,1.90
2023-03-11T19:18:18.296Z,2.00
2023-03-11T19:20:57.723Z,1.63
2023-03-11T19:23:26.442Z,1.67
2023-03-11T19:26:03.049Z,1.40
2023-03-11T19:28:31.706Z,1.83
2023-03-11T19:31:00.467Z,1.60
2023-03-11T19:33:28.687Z,1.50
2023-03-11T19:36:00.288Z,1.47
2023-03-11T19:38:29.583Z,1.33
2023-03-11T19:41:02.721Z,1.30
2023-03-11T19:43:34.177Z,1.30
2023-03-11T19:46:02.755Z,1.33
2023-03-11T19:48:31.024Z,1.40
2023-03-11T19:51:00.832Z,1.20
2023-03-11T19:53:29.867Z,1.40
2023-03-11T19:55:59.286Z,1.57
2023-03-11T19:58:30.617Z,1.37
2023-03-11T20:00:59.589Z,1.47
2023-03-11T20:03:28.130Z,1.40
2023-03-11T20:05:59.727Z,1.57
2023-03-11T20:08:30.372Z,1.50
2023-03-11T20:11:02.033Z,1.27
2023-03-11T20:13:30.261Z,1.80
2023-03-11T20:16:08.836Z,1.50
2023-03-11T20:18:37.274Z,1.33
2023-03-11T20:21:09.714Z,1.27
2023-03-11T20:23:39.686Z,1.47
2023-03-11T20:26:10.207Z,1.20
2023-03-11T20:28:38.932Z,1.33
2023-03-11T20:31:12.894Z,1.10
2023-03-11T20:33:41.152Z,1.17
2023-03-11T20:36:11.684Z,1.37
2023-03-11T20:38:41.900Z,1.20
2023-03-11T20:41:14.430Z,1.43
2023-03-11T20:43:42.657Z,1.27
2023-03-11T20:46:11.889Z,1.57
2023-03-11T20:48:40.623Z,1.60
2023-03-11T20:51:14.895Z,1.40
2023-03-11T20:53:44.466Z,1.77
2023-03-11T20:56:15.037Z,1.63
2023-03-11T20:58:44.614Z,1.53
2023-03-11T21:01:15.768Z,1.63
2023-03-11T21:03:44.880Z,1.90
2023-03-11T21:06:21.059Z,1.73
2023-03-11T21:08:52.033Z,1.33
2023-03-11T21:11:21.055Z,1.80
2023-03-11T21:13:49.337Z,1.20
2023-03-11T21:16:21.029Z,1.17
2023-03-11T21:18:49.692Z,0.77
2023-03-11T21:21:20.874Z,1.10
2023-03-11T21:23:51.306Z,1.33
2023-03-11T21:26:19.686Z,1.00
2023-03-11T21:28:47.913Z,1.27
2023-03-11T21:31:18.279Z,1.20
2023-03-11T21:33:47.224Z,0.90
2023-03-11T21:36:17.354Z,0.90
2023-03-11T21:38:45.876Z,0.90
2023-03-11T21:41:25.989Z,1.20
2023-03-11T21:43:55.493Z,1.30
2023-03-11T21:46:29.821Z,1.40
2023-03-11T21:48:59.010Z,1.30
2023-03-11T21:51:27.890Z,1.20
2023-03-11T21:53:56.654Z,1.20
2023-03-11T21:56:26.445Z,1.60
2023-03-11T21:58:57.911Z,1.57
2023-03-11T22:01:26.320Z,1.40
2023-03-11T22:03:55.364Z,1.23
2023-03-11T22:06:24.510Z,1.20
2023-03-11T22:08:53.680Z,1.33
2023-03-11T22:11:26.073Z,1.27
2023-03-11T22:13:56.106Z,1.40
2023-03-11T22:16:25.544Z,1.30
2023-03-11T22:18:54.687Z,1.30
2023-03-11T22:21:22.840Z,1.30
2023-03-11T22:23:51.166Z,1.43
2023-03-11T22:26:19.574Z,1.53
2023-03-11T22:28:58.399Z,1.53
2023-03-11T22:31:26.630Z,1.60
2023-03-11T22:34:00.849Z,1.60
2023-03-11T22:36:28.945Z,1.17
2023-03-11T22:38:57.107Z,1.57
2023-03-11T22:41:25.317Z,1.60
2023-03-11T22:43:53.616Z,1.40
2023-03-11T22:46:23.464Z,1.50
2023-03-11T22:48:52.193Z,1.40
2023-03-11T22:51:20.337Z,1.20
2023-03-11T22:53:48.996Z,1.90
2023-03-11T22:56:18.713Z,1.50
2023-03-11T22:58:48.125Z,1.40
2023-03-11T23:01:16.581Z,1.40
2023-03-11T23:03:46.528Z,1.40
2023-03-11T23:06:30.361Z,1.33
2023-03-11T23:08:59.534Z,1.43
2023-03-11T23:11:27.732Z,1.90
2023-03-11T23:13:56.869Z,1.50
2023-03-11T23:16:27.272Z,1.60
2023-03-11T23:18:57.855Z,1.37
2023-03-11T23:21:29.920Z,1.00
2023-03-11T23:23:59.967Z,1.40
2023-03-11T23:26:32.711Z,1.20
2023-03-11T23:29:01.685Z,1.20
2023-03-11T23:31:32.381Z,1.37
2023-03-11T23:34:01.892Z,1.67
2023-03-11T23:36:31.385Z,1.17
2023-03-11T23:38:59.646Z,1.23
2023-03-11T23:41:32.148Z,1.00
2023-03-11T23:44:00.423Z,1.47
2023-03-11T23:46:35.442Z,1.00
2023-03-11T23:49:04.977Z,1.23
2023-03-11T23:51:33.287Z,1.20
2023-03-11T23:54:01.730Z,1.13
2023-03-11T23:56:29.887Z,1.10
2023-03-11T23:58:58.027Z,1.40
